메인 페이지
METAR-TAF:

METAR-TAF

공항 :

에스키셰히르, 터키

위도: 39-47N, 경도: 030-34E, 고도: 785m

현재 날씨관측

예보는 19 시간 7분 전, 20:13시(UTC)에 발표되었습니다.
남동5kt풍과 남남동풍을 오가는
온도 14°C
습도 82%
기압 1024 hPa
시정 10km 이상
고도 4000ft 상공 구름 보통
고도 10000ft 상공 구름 보통

METAR: LTBI 212013Z 13005KT 100V160 9999 SCT040 SCT100 14/11 Q1024 RESHRA NOSIG RMK RWY08 15003KT

시각: 18:20 (15:20 UTC)

예보

예보는 1 시간 40분 전, 13:40시(UTC)에 발표되었습니다.
예보 대상 시간: 22일 15시부터 22일 24시까지 (UTC)
여러 방향의 바람 2kt
시정 10km 이상
1500m 미만 상공 구름 및 적란운 없음

TAF: LTBI 221340Z 2215/2224 VRB02KT CAVOK

4,000개 이상의 공항 관측 자료 및 예보 (METAR 및 TAF 보고).

지도상에서 검색 가능한 기상관측소가 노란 점과 빨간 점으로 표시되어 있습니다.

기상관측소 명을 보려면 표시 위로 마우스를 이동하세요.

날씨 관측과 예보를 보려면 클릭하세요.

지도 변경 : 확대하려면 엑스 표시가 있는 녹색 버튼, 축소하려면 빼기 표시가 있는 녹색 버튼, 다음 페이지의 지도를 보려면 녹색 화살표를 클릭하세요.


METAR-TAF: